• Join FlightAware (Why Join?)
  • Login
  • US Flag 
06:28AM EDT


 

Airport Tracker/Info


-or-


 

Live Flight TrackerFlight Track Log ✈ WBR2907 ✈ 31-Aug-2013 ✈ KBRL - KSTL

Flight Track Log - Related Links

Times and Time Zones

All times are in EDT time to prevent confusion due to time zone crossing. See the WBR2907 flight status page for this flight to view local times or setup timezone preferences in your user account.

Time Position Orientation Groundspeed Altitude Reporting Facility
EDT Latitude Longitude Course Direction KTS MPH feet Rate Location/Type
08:35AM 40.5805 -91.0481 163° South  Level Estimated
08:35AM 40.7600 -91.1239 163° South 76 87 1,400  Level Chicago Center
08:36AM 40.5400 -91.0321 163° South  Level FlightAware Approximate
08:36AM 40.7217 -91.1028 157° South 123 142 2,300  Level Chicago Center
08:37AM 40.4996 -91.0161 163° South  Level FlightAware Approximate
08:37AM 40.6906 -91.0925 166° South 129 148 3,000  Level Chicago Center
08:38AM 40.4592 -91.0001 163° South  Level FlightAware Approximate
08:38AM 40.6500 -91.0769 164° South 128 147 3,900  Level Chicago Center
08:39AM 40.4186 -90.9848 163° South  Level Estimated
08:39AM 40.6167 -91.0658 166° South 125 144 4,600  Level Chicago Center
08:40AM 40.3783 -90.9685 163° South  Level FlightAware Approximate
08:40AM 40.5828 -91.0525 163° South 126 145 5,000  Level Chicago Center
08:41AM 40.5436 -91.0386 165° South 137 158 5,000  Level Chicago Center
08:42AM 40.5033 -91.0225 163° South 145 167 5,000  Level Chicago Center
08:43AM 40.4636 -91.0072 164° South 147 169 5,000  Level Chicago Center
08:44AM 40.4219 -90.9908 163° South 154 177 5,000  Level Chicago Center
08:45AM 40.3842 -90.9817 170° South 144 166 5,000  Level Chicago Center
08:46AM 40.3467 -90.9647 161° South 142 163 5,000  Level Chicago Center
08:47AM 40.3067 -90.9444 159° South 148 170 5,000  Level Kansas City Center
08:48AM 40.2694 -90.9339 168° South 143 165 5,000  Level Kansas City Center
08:49AM 40.2297 -90.9236 169° South 143 165 5,000  Level Kansas City Center
08:50AM 40.1897 -90.9114 167° South 146 168 5,000  Level Kansas City Center
08:51AM 40.1503 -90.8964 164° South 148 170 5,000  Level Kansas City Center
08:52AM 40.1119 -90.8814 163° South 145 167 5,000  Level Kansas City Center
08:53AM 40.0733 -90.8658 163° South 143 165 5,000  Level Kansas City Center
08:54AM 40.0250 -90.8472 164° South 150 173 5,000  Level Kansas City Center
08:55AM 39.9856 -90.8325 164° South 149 171 5,000  Level Kansas City Center
08:56AM 39.9469 -90.8214 168° South 144 166 5,000  Level Kansas City Center
08:57AM 39.9075 -90.8036 161° South 148 170 5,000  Level Kansas City Center
08:58AM 39.8675 -90.7872 163° South 150 173 5,000  Level Kansas City Center
08:59AM 39.8297 -90.7733 164° South 144 166 5,100  Climbing Kansas City Center
09:00AM 39.7892 -90.7572 163° South 149 171 5,000 -60 Descending Kansas City Center
09:01AM 39.7444 -90.7489 172° South 149 171 5,000  Level Kansas City Center
09:02AM 39.7056 -90.7347 164° South 146 168 5,000  Level Kansas City Center
09:03AM 39.6661 -90.7167 161° South 149 171 5,000  Level Kansas City Center
09:04AM 39.6261 -90.6994 162° South 151 174 5,100  Climbing Kansas City Center
09:05AM 39.5858 -90.6867 166° South 150 173 5,100 -60 Level Kansas City Center
09:06AM 39.5467 -90.6739 166° South 147 169 5,000  Descending Kansas City Center
09:07AM 39.5072 -90.6589 164° South 147 169 5,100  Climbing Kansas City Center
09:08AM 39.4581 -90.6375 161° South 154 177 5,000 -60 Descending Kansas City Center
09:09AM 39.4172 -90.6244 166° South 154 177 5,000  Level Kansas City Center
09:10AM 39.3778 -90.6061 160° South 151 174 5,000  Level Kansas City Center
09:11AM 39.3408 -90.5742 146° Southeast 156 180 5,000  Level Kansas City Center
09:12AM 39.3033 -90.5456 149° Southeast 157 181 5,000  Level Kansas City Center
09:13AM 39.2672 -90.5164 148° Southeast 154 177 5,000  Level Kansas City Center
09:14AM 39.2306 -90.4883 149° Southeast 154 177 5,000  Level Kansas City Center
09:15AM 39.1933 -90.4614 151° Southeast 154 177 5,000 -180 Level Kansas City Center
09:16AM 39.1592 -90.4303 145° Southeast 152 175 4,700 -480 Descending Kansas City Center
09:17AM 39.1233 -90.3983 145° Southeast 153 176 4,100 -360 Descending Kansas City Center
09:18AM 39.0775 -90.3633 149° Southeast 157 181 4,000 -300 Descending Kansas City Center
09:20AM 39.0408 -90.3347 149° Southeast 156 180 3,500 -540 Descending Kansas City Center
09:21AM 39.0019 -90.3078 152° Southeast 157 181 3,000 -300 Descending Kansas City Center
09:22AM 38.9611 -90.2778 150° Southeast 162 186 3,000  Level Kansas City Center
09:23AM 38.9208 -90.2564 158° South 160 184 3,000  Level Kansas City Center
09:24AM 38.8794 -90.2444 167° South 155 178 3,000  Level Kansas City Center
09:25AM 38.8372 -90.2325 168° South 155 178 3,000 -240 Level Kansas City Center
09:26AM 38.8017 -90.2358 184° South 144 166 2,600 -540 Descending Kansas City Center
09:27AM 38.7900 -90.2714 247° West 119 137 2,000 -540 Descending Kansas City Center
09:28AM 38.7781 -90.3031 244° Southwest 109 125 1,500 -540 Descending Kansas City Center
09:29AM 38.7622 -90.3422 243° Southwest 104 120 900 -540 Descending Kansas City Center
09:30AM 38.7647 -90.3686 277° West 131 151 500 -420 Descending Kansas City Center